createdAt,value
2018-08-11T00:01:29.994Z,15.10
2018-08-11T00:03:58.421Z,15.00
2018-08-11T00:06:26.867Z,14.90
2018-08-11T00:08:55.389Z,15.00
2018-08-11T00:11:23.907Z,15.10
2018-08-11T00:13:52.397Z,15.20
2018-08-11T00:16:20.903Z,15.20
2018-08-11T00:18:49.518Z,15.10
2018-08-11T00:21:18.152Z,15.10
2018-08-11T00:23:46.709Z,15.20
2018-08-11T00:26:15.162Z,15.10
2018-08-11T00:28:43.551Z,15.10
2018-08-11T00:31:12.015Z,15.00
2018-08-11T00:33:40.474Z,14.90
2018-08-11T00:36:08.996Z,14.90
2018-08-11T00:38:37.799Z,14.90
2018-08-11T00:41:06.225Z,14.90
2018-08-11T00:43:34.717Z,14.90
2018-08-11T00:46:03.181Z,14.90
2018-08-11T00:48:31.609Z,14.80
2018-08-11T00:51:00.092Z,14.90
2018-08-11T00:53:28.521Z,14.90
2018-08-11T00:55:56.885Z,14.70
2018-08-11T00:58:25.440Z,14.70
2018-08-11T01:00:53.879Z,14.90
2018-08-11T01:03:22.328Z,14.90
2018-08-11T01:05:50.681Z,14.80
2018-08-11T01:08:19.224Z,14.80
2018-08-11T01:10:47.684Z,14.80
2018-08-11T01:13:16.121Z,14.80
2018-08-11T01:15:44.546Z,14.70
2018-08-11T01:18:12.955Z,14.70
2018-08-11T01:20:41.416Z,14.60
2018-08-11T01:23:09.950Z,14.50
2018-08-11T01:25:38.473Z,14.50
2018-08-11T01:28:06.926Z,14.40
2018-08-11T01:30:35.346Z,14.40
2018-08-11T01:33:03.770Z,14.40
2018-08-11T01:35:32.476Z,14.30
2018-08-11T01:38:01.054Z,14.20
2018-08-11T01:40:29.470Z,14.20
2018-08-11T01:42:57.907Z,14.20
2018-08-11T01:45:26.392Z,14.20
2018-08-11T01:47:54.736Z,14.20
2018-08-11T01:50:23.107Z,14.20
2018-08-11T01:52:51.600Z,14.20
2018-08-11T01:55:20.071Z,14.20
2018-08-11T01:57:48.461Z,14.20
2018-08-11T02:00:17.302Z,14.20
2018-08-11T02:02:45.675Z,14.30
2018-08-11T02:05:14.201Z,14.30
2018-08-11T02:07:43.633Z,14.20
2018-08-11T02:10:16.868Z,14.20
2018-08-11T02:12:45.929Z,14.10
2018-08-11T02:15:14.753Z,14.10
2018-08-11T02:17:43.154Z,14.10
2018-08-11T02:20:18.985Z,14.10
2018-08-11T02:22:48.346Z,14.10
2018-08-11T02:25:16.854Z,14.10
2018-08-11T02:27:45.236Z,14.10
2018-08-11T02:30:16.368Z,14.00
2018-08-11T02:32:44.829Z,14.10
2018-08-11T02:35:13.844Z,14.00
2018-08-11T02:37:42.611Z,14.00
2018-08-11T02:40:12.495Z,14.00
2018-08-11T02:42:41.046Z,14.00
2018-08-11T02:45:11.259Z,14.00
2018-08-11T02:47:39.700Z,14.10
2018-08-11T02:50:09.615Z,14.10
2018-08-11T02:52:38.485Z,14.00
2018-08-11T02:55:06.894Z,14.00
2018-08-11T02:57:35.511Z,14.00
2018-08-11T03:00:04.863Z,14.00
2018-08-11T03:02:33.375Z,14.00
2018-08-11T03:05:01.731Z,14.00
2018-08-11T03:07:30.138Z,14.00
2018-08-11T03:09:58.563Z,14.00
2018-08-11T03:12:27.139Z,13.90
2018-08-11T03:14:55.731Z,13.80
2018-08-11T03:17:24.326Z,13.90
2018-08-11T03:19:52.743Z,13.90
2018-08-11T03:22:21.160Z,13.90
2018-08-11T03:24:49.872Z,14.00
2018-08-11T03:27:18.317Z,14.00
2018-08-11T03:29:46.686Z,13.90
2018-08-11T03:32:15.144Z,13.80
2018-08-11T03:34:43.527Z,13.80
2018-08-11T03:37:11.903Z,13.80
2018-08-11T03:39:40.227Z,13.90
2018-08-11T03:42:08.609Z,13.90
2018-08-11T03:44:36.995Z,13.90
2018-08-11T03:47:05.455Z,13.80
2018-08-11T03:49:33.937Z,13.80
2018-08-11T03:52:02.333Z,13.80
2018-08-11T03:54:30.757Z,13.70
2018-08-11T03:56:59.221Z,13.50
2018-08-11T03:59:27.623Z,13.40
2018-08-11T04:01:56.045Z,13.70
2018-08-11T04:04:24.359Z,13.60
2018-08-11T04:06:52.803Z,13.70
2018-08-11T04:09:21.191Z,13.70
2018-08-11T04:11:49.554Z,13.80
2018-08-11T04:14:17.964Z,13.70
2018-08-11T04:16:46.383Z,13.70
2018-08-11T04:19:14.858Z,13.70
2018-08-11T04:21:43.187Z,13.70
2018-08-11T04:24:11.575Z,13.60
2018-08-11T04:26:40.067Z,13.70
2018-08-11T04:29:09.137Z,13.70
2018-08-11T04:31:37.941Z,13.70
2018-08-11T04:34:06.479Z,13.70
2018-08-11T04:36:35.007Z,13.70
2018-08-11T04:39:03.419Z,13.80
2018-08-11T04:41:31.876Z,13.80
2018-08-11T04:44:00.244Z,13.80
2018-08-11T04:46:28.615Z,13.80
2018-08-11T04:48:56.991Z,13.80
2018-08-11T04:51:25.384Z,13.90
2018-08-11T04:53:53.790Z,14.00
2018-08-11T04:56:22.150Z,13.90
2018-08-11T04:58:50.557Z,14.00
2018-08-11T05:01:18.955Z,14.00
2018-08-11T05:03:47.439Z,14.00
2018-08-11T05:06:15.806Z,14.00
2018-08-11T05:08:44.146Z,14.10
2018-08-11T05:11:12.550Z,14.00
2018-08-11T05:13:40.953Z,14.20
2018-08-11T05:16:09.381Z,14.30
2018-08-11T05:18:37.750Z,14.30
2018-08-11T05:21:06.233Z,14.40
2018-08-11T05:23:34.596Z,14.50
2018-08-11T05:26:02.974Z,14.50
2018-08-11T05:28:31.371Z,14.40
2018-08-11T05:30:59.793Z,14.60
2018-08-11T05:33:28.215Z,14.70
2018-08-11T05:35:56.561Z,14.70
2018-08-11T05:38:24.892Z,14.80
2018-08-11T05:40:53.274Z,15.00
2018-08-11T05:43:21.664Z,15.00
2018-08-11T05:45:50.012Z,15.10
2018-08-11T05:48:18.318Z,15.20
2018-08-11T05:50:46.729Z,15.40
2018-08-11T05:53:15.178Z,15.40
2018-08-11T05:55:43.550Z,15.50
2018-08-11T05:58:11.977Z,15.60
2018-08-11T06:00:40.317Z,15.70
2018-08-11T06:03:08.663Z,15.80
2018-08-11T06:05:37.007Z,16.00
2018-08-11T06:08:05.689Z,16.00
2018-08-11T06:10:34.094Z,16.10
2018-08-11T06:13:02.431Z,16.30
2018-08-11T06:15:30.848Z,16.40
2018-08-11T06:17:59.344Z,16.70
2018-08-11T06:20:27.868Z,17.50
2018-08-11T06:22:56.319Z,18.70
2018-08-11T06:25:24.781Z,20.20
2018-08-11T06:27:53.221Z,21.40
2018-08-11T06:30:21.647Z,22.40
2018-08-11T06:32:50.149Z,23.20
2018-08-11T06:35:18.506Z,23.70
2018-08-11T06:37:46.962Z,24.30
2018-08-11T06:40:15.428Z,25.20
2018-08-11T06:42:44.195Z,24.90
2018-08-11T06:45:12.648Z,24.10
2018-08-11T06:47:41.049Z,23.00
2018-08-11T06:50:09.589Z,21.90
2018-08-11T06:52:38.072Z,21.40
2018-08-11T06:55:06.732Z,21.00
2018-08-11T06:57:35.058Z,20.80
2018-08-11T07:00:03.617Z,21.30
2018-08-11T07:02:32.004Z,22.10
2018-08-11T07:05:00.473Z,22.10
2018-08-11T07:07:28.944Z,21.60
2018-08-11T07:09:57.546Z,22.00
2018-08-11T07:12:25.929Z,22.70
2018-08-11T07:14:54.388Z,22.90
2018-08-11T07:17:22.735Z,23.20
2018-08-11T07:19:51.195Z,23.40
2018-08-11T07:22:19.619Z,23.50
2018-08-11T07:24:47.992Z,24.00
2018-08-11T07:27:16.440Z,24.00
2018-08-11T07:29:44.863Z,24.00
2018-08-11T07:32:13.241Z,24.30
2018-08-11T07:34:41.549Z,24.80
2018-08-11T07:37:09.959Z,25.10
2018-08-11T07:39:38.323Z,25.10
2018-08-11T07:42:06.778Z,25.50
2018-08-11T07:44:36.246Z,25.50
2018-08-11T07:47:04.842Z,25.70
2018-08-11T07:49:33.288Z,25.50
2018-08-11T07:52:01.750Z,25.70
2018-08-11T07:54:30.302Z,25.90
2018-08-11T07:56:58.812Z,25.70
2018-08-11T07:59:27.206Z,25.60
2018-08-11T08:01:55.543Z,25.90
2018-08-11T08:04:24.025Z,25.80
2018-08-11T08:06:52.355Z,26.10
2018-08-11T08:09:20.864Z,26.40
2018-08-11T08:11:49.283Z,26.40
2018-08-11T08:14:17.666Z,26.00
2018-08-11T08:16:46.014Z,25.70
2018-08-11T08:19:14.396Z,25.50
2018-08-11T08:21:42.842Z,24.80
2018-08-11T08:24:11.240Z,25.10
2018-08-11T08:26:39.736Z,25.10
2018-08-11T08:29:08.160Z,25.00
2018-08-11T08:31:36.538Z,25.40
2018-08-11T08:34:05.165Z,25.30
2018-08-11T08:36:33.530Z,25.30
2018-08-11T08:39:01.927Z,25.70
2018-08-11T08:41:30.402Z,25.80
2018-08-11T08:43:58.728Z,25.90
2018-08-11T08:46:27.189Z,25.90
2018-08-11T08:48:55.752Z,25.50
2018-08-11T08:51:24.204Z,25.40
2018-08-11T08:53:52.579Z,25.60
2018-08-11T08:56:20.998Z,25.30
2018-08-11T08:58:49.339Z,25.40
2018-08-11T09:01:17.761Z,25.70
2018-08-11T09:03:46.281Z,25.50
2018-08-11T09:06:14.748Z,25.10
2018-08-11T09:08:43.111Z,24.90
2018-08-11T09:11:11.483Z,25.30
2018-08-11T09:13:39.902Z,25.20
2018-08-11T09:16:08.267Z,24.50
2018-08-11T09:18:36.583Z,24.80
2018-08-11T09:21:05.097Z,25.30
2018-08-11T09:23:33.481Z,25.30
2018-08-11T09:26:02.152Z,25.20
2018-08-11T09:28:30.568Z,24.40
2018-08-11T09:30:59.001Z,23.90
2018-08-11T09:33:27.384Z,24.50
2018-08-11T09:35:55.756Z,25.00
2018-08-11T09:38:24.191Z,25.50
2018-08-11T09:40:53.340Z,25.90
2018-08-11T09:43:21.784Z,25.90
2018-08-11T09:45:50.358Z,26.10
2018-08-11T09:48:18.604Z,26.00
2018-08-11T09:50:47.054Z,25.60
2018-08-11T09:53:15.535Z,24.90
2018-08-11T09:55:43.900Z,24.20
2018-08-11T09:58:12.306Z,24.30
2018-08-11T10:00:45.942Z,24.50
2018-08-11T10:03:14.283Z,24.60
2018-08-11T10:05:42.697Z,24.70
2018-08-11T10:08:11.315Z,25.00
2018-08-11T10:10:39.779Z,25.10
2018-08-11T10:13:08.161Z,25.40
2018-08-11T10:15:36.615Z,25.70
2018-08-11T10:18:05.180Z,26.00
2018-08-11T10:20:33.578Z,26.00
2018-08-11T10:23:01.962Z,25.70
2018-08-11T10:25:30.314Z,26.10
2018-08-11T10:27:58.718Z,26.00
2018-08-11T10:30:27.308Z,26.30
2018-08-11T10:32:55.917Z,26.70
2018-08-11T10:35:24.230Z,26.70
2018-08-11T10:37:52.631Z,26.70
2018-08-11T10:40:21.095Z,26.70
2018-08-11T10:42:49.573Z,26.60
2018-08-11T10:45:18.232Z,26.40
2018-08-11T10:47:47.221Z,26.80
2018-08-11T10:50:15.572Z,27.10
2018-08-11T10:52:43.910Z,27.10
2018-08-11T10:55:12.331Z,26.60
2018-08-11T10:57:40.738Z,25.60
2018-08-11T11:00:09.086Z,25.50
2018-08-11T11:02:38.544Z,25.50
2018-08-11T11:05:07.560Z,25.30
2018-08-11T11:07:35.928Z,25.30
2018-08-11T11:10:04.518Z,25.30
2018-08-11T11:12:33.194Z,25.20
2018-08-11T11:15:01.524Z,25.30
2018-08-11T11:17:29.948Z,25.50
2018-08-11T11:19:58.387Z,25.70
2018-08-11T11:22:31.785Z,25.50
2018-08-11T11:25:00.669Z,25.40
2018-08-11T11:27:29.158Z,25.70
2018-08-11T11:29:57.541Z,25.70
2018-08-11T11:32:26.730Z,25.50
2018-08-11T11:34:55.546Z,25.30
2018-08-11T11:37:26.400Z,25.40
2018-08-11T11:39:54.896Z,25.40
2018-08-11T11:42:23.472Z,25.20
2018-08-11T11:44:51.879Z,25.40
2018-08-11T11:47:20.284Z,25.50
2018-08-11T11:49:48.768Z,25.70
2018-08-11T11:52:17.346Z,26.00
2018-08-11T11:54:45.780Z,26.30
2018-08-11T11:57:14.249Z,26.40
2018-08-11T11:59:42.636Z,25.90
2018-08-11T12:02:11.080Z,25.70
2018-08-11T12:04:39.431Z,25.90
2018-08-11T12:07:08.026Z,25.50
2018-08-11T12:09:36.442Z,25.10
2018-08-11T12:12:04.822Z,25.00
2018-08-11T12:14:33.263Z,25.10
2018-08-11T12:17:01.711Z,25.10
2018-08-11T12:19:30.270Z,25.20
2018-08-11T12:21:58.624Z,25.00
2018-08-11T12:24:27.102Z,24.80
2018-08-11T12:26:55.538Z,24.90
2018-08-11T12:29:23.866Z,24.90
2018-08-11T12:31:52.344Z,24.90
2018-08-11T12:34:20.706Z,24.50
2018-08-11T12:36:49.099Z,24.60
2018-08-11T12:39:17.462Z,24.90
2018-08-11T12:41:45.864Z,25.10
2018-08-11T12:44:14.281Z,25.20
2018-08-11T12:46:42.924Z,24.80
2018-08-11T12:49:11.309Z,24.90
2018-08-11T12:51:39.791Z,25.00
2018-08-11T12:54:08.838Z,25.10
2018-08-11T12:56:37.234Z,25.10
2018-08-11T12:59:05.663Z,24.90
2018-08-11T13:01:34.051Z,24.80
2018-08-11T13:04:02.407Z,24.70
2018-08-11T13:06:30.706Z,24.70
2018-08-11T13:08:59.060Z,24.80
2018-08-11T13:11:27.630Z,24.80
2018-08-11T13:13:56.764Z,24.80
2018-08-11T13:16:25.176Z,24.90
2018-08-11T13:18:53.657Z,24.80
2018-08-11T13:21:22.062Z,24.70
2018-08-11T13:23:50.404Z,24.70
2018-08-11T13:26:18.858Z,24.70
2018-08-11T13:28:47.621Z,24.50
2018-08-11T13:31:16.174Z,24.20
2018-08-11T13:33:44.573Z,24.20
2018-08-11T13:36:12.981Z,24.40
2018-08-11T13:41:52.355Z,24.60
2018-08-11T13:44:20.758Z,24.80
2018-08-11T13:46:49.268Z,24.70
2018-08-11T13:49:17.744Z,24.50
2018-08-11T13:51:46.182Z,24.60
2018-08-11T13:54:14.569Z,24.70
2018-08-11T13:56:42.934Z,24.80
2018-08-11T13:59:11.370Z,24.90
2018-08-11T14:01:40.362Z,24.90
2018-08-11T14:04:08.733Z,24.90
2018-08-11T14:06:37.251Z,24.60
2018-08-11T14:09:07.379Z,24.40
2018-08-11T14:11:35.760Z,24.60
2018-08-11T14:14:04.228Z,24.70
2018-08-11T14:16:32.707Z,24.90
2018-08-11T14:19:01.142Z,25.10
2018-08-11T14:21:29.589Z,25.10
2018-08-11T14:23:57.965Z,24.90
2018-08-11T14:26:26.426Z,24.90
2018-08-11T14:28:54.804Z,25.00
2018-08-11T14:31:23.212Z,25.00
2018-08-11T14:33:51.650Z,24.90
2018-08-11T14:36:20.092Z,24.90
2018-08-11T14:38:48.555Z,24.80
2018-08-11T14:41:16.939Z,24.70
2018-08-11T14:43:45.457Z,24.70
2018-08-11T14:46:13.789Z,24.70
2018-08-11T14:48:42.276Z,24.70
2018-08-11T14:51:11.070Z,24.70
2018-08-11T14:53:39.406Z,24.60
2018-08-11T14:56:07.869Z,24.60
2018-08-11T14:58:36.287Z,24.80
2018-08-11T15:01:04.755Z,25.00
2018-08-11T15:03:33.148Z,24.90
2018-08-11T15:06:01.562Z,25.00
2018-08-11T15:08:29.900Z,25.10
2018-08-11T15:10:58.244Z,25.10
2018-08-11T15:13:26.596Z,24.90
2018-08-11T15:15:55.003Z,24.80
2018-08-11T15:18:23.491Z,24.50
2018-08-11T15:20:51.851Z,24.30
2018-08-11T15:23:20.294Z,24.50
2018-08-11T15:25:48.650Z,24.50
2018-08-11T15:28:17.091Z,24.60
2018-08-11T15:30:45.425Z,24.60
2018-08-11T15:33:13.904Z,24.60
2018-08-11T15:35:42.404Z,24.80
2018-08-11T15:38:10.846Z,24.80
2018-08-11T15:40:39.216Z,24.70
2018-08-11T15:43:07.731Z,24.70
2018-08-11T15:45:36.107Z,24.70
2018-08-11T15:48:04.723Z,24.70
2018-08-11T15:50:33.245Z,24.70
2018-08-11T15:53:01.601Z,24.60
2018-08-11T15:55:30.040Z,24.50
2018-08-11T15:57:58.383Z,24.30
2018-08-11T16:00:26.923Z,24.10
2018-08-11T16:02:55.342Z,24.00
2018-08-11T16:05:23.691Z,24.00
2018-08-11T16:07:52.100Z,24.00
2018-08-11T16:10:20.504Z,24.00
2018-08-11T16:12:48.927Z,24.10
2018-08-11T16:15:17.317Z,24.20
2018-08-11T16:17:45.654Z,24.20
2018-08-11T16:20:14.215Z,24.10
2018-08-11T16:22:42.791Z,24.10
2018-08-11T16:25:11.309Z,24.10
2018-08-11T16:27:39.743Z,24.00
2018-08-11T16:30:10.340Z,24.00
2018-08-11T16:32:38.727Z,24.00
2018-08-11T16:35:07.227Z,23.90
2018-08-11T16:37:36.119Z,24.00
2018-08-11T16:40:04.834Z,24.10
2018-08-11T16:42:33.215Z,24.00
2018-08-11T16:45:01.660Z,24.00
2018-08-11T16:47:30.024Z,24.00
2018-08-11T16:49:58.401Z,23.90
2018-08-11T16:52:26.890Z,23.90
2018-08-11T16:54:55.263Z,23.90
2018-08-11T16:57:23.781Z,23.90
2018-08-11T16:59:52.155Z,23.90
2018-08-11T17:02:20.615Z,23.90
2018-08-11T17:04:49.302Z,23.80
2018-08-11T17:07:17.758Z,23.70
2018-08-11T17:09:46.129Z,23.70
2018-08-11T17:12:14.475Z,23.70
2018-08-11T17:14:42.961Z,23.70
2018-08-11T17:17:11.466Z,23.50
2018-08-11T17:19:39.925Z,23.40
2018-08-11T17:22:08.255Z,23.40
2018-08-11T17:24:36.724Z,23.40
2018-08-11T17:27:05.129Z,23.30
2018-08-11T17:29:33.546Z,23.30
2018-08-11T17:32:01.878Z,23.40
2018-08-11T17:34:30.315Z,23.20
2018-08-11T17:36:58.647Z,23.10
2018-08-11T17:39:27.034Z,23.10
2018-08-11T17:41:55.417Z,23.00
2018-08-11T17:44:24.450Z,23.10
2018-08-11T17:46:52.792Z,23.10
2018-08-11T17:49:21.158Z,23.10
2018-08-11T17:51:49.756Z,22.90
2018-08-11T17:54:18.274Z,22.90
2018-08-11T17:56:46.669Z,22.80
2018-08-11T17:59:21.235Z,22.80
2018-08-11T18:01:49.679Z,22.80
2018-08-11T18:04:18.106Z,22.80
2018-08-11T18:06:46.559Z,22.60
2018-08-11T18:09:15.003Z,22.60
2018-08-11T18:11:43.451Z,22.20
2018-08-11T18:14:11.841Z,22.40
2018-08-11T18:16:40.603Z,22.20
2018-08-11T18:19:09.273Z,22.20
2018-08-11T18:21:38.271Z,22.10
2018-08-11T18:24:07.176Z,22.00
2018-08-11T18:26:35.547Z,22.00
2018-08-11T18:29:03.955Z,21.90
2018-08-11T18:31:32.477Z,21.80
2018-08-11T18:34:00.869Z,21.70
2018-08-11T18:36:29.374Z,21.70
2018-08-11T18:38:57.754Z,21.70
2018-08-11T18:41:26.190Z,21.60
2018-08-11T18:43:54.528Z,21.50
2018-08-11T18:46:22.912Z,21.50
2018-08-11T18:48:51.360Z,21.30
2018-08-11T18:51:19.742Z,21.20
2018-08-11T18:53:48.267Z,21.10
2018-08-11T18:56:16.734Z,20.90
2018-08-11T18:58:45.124Z,20.90
2018-08-11T19:01:13.528Z,20.80
2018-08-11T19:03:41.984Z,20.70
2018-08-11T19:06:10.459Z,20.60
2018-08-11T19:08:38.787Z,20.50
2018-08-11T19:11:07.275Z,20.50
2018-08-11T19:13:35.678Z,20.40
2018-08-11T19:16:04.074Z,20.30
2018-08-11T19:18:32.616Z,20.20
2018-08-11T19:21:00.994Z,20.10
2018-08-11T19:23:29.362Z,20.00
2018-08-11T19:25:57.996Z,20.00
2018-08-11T19:28:26.348Z,19.80
2018-08-11T19:30:54.876Z,19.80
2018-08-11T19:33:23.337Z,19.70
2018-08-11T19:35:51.994Z,19.60
2018-08-11T19:38:20.603Z,19.60
2018-08-11T19:40:49.071Z,19.60
2018-08-11T19:43:17.639Z,19.50
2018-08-11T19:45:47.137Z,19.50
2018-08-11T19:48:15.764Z,19.40
2018-08-11T19:50:44.248Z,19.30
2018-08-11T19:53:12.626Z,19.30
2018-08-11T19:55:40.989Z,19.20
2018-08-11T19:58:09.410Z,19.20
2018-08-11T20:00:37.836Z,19.10
2018-08-11T20:03:06.641Z,19.10
2018-08-11T20:05:35.064Z,19.00
2018-08-11T20:08:03.534Z,18.80
2018-08-11T20:10:32.006Z,18.60
2018-08-11T20:13:00.452Z,18.60
2018-08-11T20:15:28.939Z,18.60
2018-08-11T20:17:57.368Z,18.60
2018-08-11T20:20:26.930Z,18.60
2018-08-11T20:22:56.157Z,18.50
2018-08-11T20:25:24.854Z,18.50
2018-08-11T20:27:53.136Z,18.50
2018-08-11T20:30:21.519Z,18.40
2018-08-11T20:32:49.968Z,18.30
2018-08-11T20:35:18.369Z,18.20
2018-08-11T20:37:46.803Z,18.10
2018-08-11T20:40:15.272Z,18.00
2018-08-11T20:42:43.710Z,18.00
2018-08-11T20:45:12.178Z,17.90
2018-08-11T20:47:40.612Z,17.90
2018-08-11T20:50:09.322Z,17.80
2018-08-11T20:52:37.828Z,17.70
2018-08-11T20:55:07.184Z,17.60
2018-08-11T20:57:35.667Z,17.50
2018-08-11T21:00:06.152Z,17.40
2018-08-11T21:02:34.604Z,17.40
2018-08-11T21:05:03.440Z,17.30
2018-08-11T21:07:31.794Z,17.40
2018-08-11T21:10:00.242Z,17.40
2018-08-11T21:12:28.775Z,17.30
2018-08-11T21:14:57.141Z,17.20
2018-08-11T21:17:25.635Z,17.20
2018-08-11T21:19:54.183Z,17.10
2018-08-11T21:22:22.626Z,17.10
2018-08-11T21:24:51.379Z,17.10
2018-08-11T21:27:19.917Z,17.00
2018-08-11T21:29:48.366Z,17.00
2018-08-11T21:32:16.814Z,16.90
2018-08-11T21:34:45.455Z,16.90
2018-08-11T21:37:13.901Z,16.90
2018-08-11T21:39:42.743Z,16.90
2018-08-11T21:42:11.173Z,16.90
2018-08-11T21:44:39.643Z,16.90
2018-08-11T21:47:08.030Z,17.00
2018-08-11T21:49:36.368Z,17.00
2018-08-11T21:52:04.831Z,16.90
2018-08-11T21:54:33.243Z,16.90
2018-08-11T21:57:01.632Z,16.80
2018-08-11T21:59:30.037Z,16.80
2018-08-11T22:01:58.428Z,16.70
2018-08-11T22:04:33.387Z,16.70
2018-08-11T22:07:03.961Z,16.60
2018-08-11T22:09:32.371Z,16.60
2018-08-11T22:12:01.050Z,16.70
2018-08-11T22:14:29.527Z,16.60
2018-08-11T22:16:58.027Z,16.60
2018-08-11T22:19:26.559Z,16.50
2018-08-11T22:21:55.041Z,16.40
2018-08-11T22:24:23.405Z,16.40
2018-08-11T22:26:51.811Z,16.30
2018-08-11T22:29:20.453Z,16.30
2018-08-11T22:31:48.936Z,16.20
2018-08-11T22:34:17.502Z,16.20
2018-08-11T22:36:45.955Z,16.20
2018-08-11T22:39:14.518Z,16.10
2018-08-11T22:41:42.969Z,16.20
2018-08-11T22:44:11.401Z,16.30
2018-08-11T22:46:39.811Z,16.20
2018-08-11T22:49:08.232Z,16.30
2018-08-11T22:51:36.607Z,16.30
2018-08-11T22:54:05.079Z,16.20
2018-08-11T22:56:33.467Z,16.20
2018-08-11T22:59:01.951Z,16.20
2018-08-11T23:01:30.321Z,16.10
2018-08-11T23:03:58.762Z,16.10
2018-08-11T23:06:27.203Z,16.00
2018-08-11T23:08:55.721Z,15.90
2018-08-11T23:11:24.161Z,15.90
2018-08-11T23:13:52.791Z,15.90
2018-08-11T23:16:21.136Z,15.90
2018-08-11T23:18:49.641Z,15.90
2018-08-11T23:21:18.036Z,15.80
2018-08-11T23:23:46.403Z,15.70
2018-08-11T23:26:14.842Z,15.70
2018-08-11T23:28:43.255Z,15.60
2018-08-11T23:31:11.610Z,15.60
2018-08-11T23:33:40.023Z,15.50
2018-08-11T23:36:08.709Z,15.50
2018-08-11T23:38:37.190Z,15.50
2018-08-11T23:41:05.631Z,15.60
2018-08-11T23:43:34.128Z,15.50
2018-08-11T23:46:02.559Z,15.40
2018-08-11T23:48:30.963Z,15.40
2018-08-11T23:50:59.395Z,15.40
2018-08-11T23:53:27.775Z,15.40
2018-08-11T23:55:56.257Z,15.30
2018-08-11T23:58:24.690Z,15.30
